createdAt,value
2023-09-12T04:00:18.235Z,25.60
2023-09-12T04:10:49.797Z,14.87
2023-09-12T04:21:17.775Z,11.13
2023-09-12T04:31:45.685Z,14.90
2023-09-12T04:42:13.530Z,11.75
2023-09-12T04:52:35.864Z,10.90
2023-09-12T05:03:05.165Z,16.87
2023-09-12T05:13:34.750Z,18.42
2023-09-12T05:24:03.437Z,15.47
2023-09-12T05:34:31.929Z,13.52
2023-09-12T05:44:59.671Z,12.23
2023-09-12T05:55:28.011Z,13.07
2023-09-12T06:05:56.353Z,19.25
2023-09-12T06:16:18.185Z,17.77
2023-09-12T06:26:40.397Z,9.32
2023-09-12T06:37:02.121Z,13.93
2023-09-12T06:47:30.142Z,14.57
2023-09-12T06:57:52.317Z,8.75
2023-09-12T07:08:15.089Z,10.80
2023-09-12T07:18:37.454Z,8.68
2023-09-12T07:29:03.601Z,8.83
2023-09-12T07:39:26.130Z,10.17
2023-09-12T07:49:57.671Z,11.00
2023-09-12T08:00:19.331Z,15.77
2023-09-12T08:10:47.966Z,20.02
2023-09-12T08:21:16.729Z,11.90
2023-09-12T08:31:39.107Z,7.80
2023-09-12T08:42:08.874Z,10.98
2023-09-12T08:52:30.382Z,21.60
2023-09-12T09:02:52.401Z,6.63
2023-09-12T09:12:56.084Z,12.17
2023-09-12T09:23:17.921Z,19.33
2023-09-12T09:33:46.984Z,10.73
2023-09-12T09:44:09.791Z,10.23
2023-09-12T09:54:31.343Z,8.40
2023-09-12T10:05:00.321Z,6.33
2023-09-12T10:15:31.961Z,8.97
2023-09-12T10:26:00.272Z,8.45
2023-09-12T10:36:28.781Z,5.27
2023-09-12T10:46:51.754Z,4.78
2023-09-12T10:57:15.248Z,4.07
2023-09-12T11:07:40.333Z,10.73
2023-09-12T11:18:08.759Z,4.30
2023-09-12T11:28:37.211Z,5.13
2023-09-12T11:39:27.428Z,8.27
2023-09-12T11:49:51.051Z,5.00
2023-09-12T12:00:20.725Z,4.53
2023-09-12T12:10:45.009Z,5.85
2023-09-12T12:21:08.231Z,8.67
2023-09-12T12:31:36.687Z,8.15
2023-09-12T12:41:59.172Z,14.97
2023-09-12T12:52:27.245Z,5.33
2023-09-12T13:02:49.430Z,4.93
2023-09-12T13:13:12.781Z,6.67
2023-09-12T13:23:38.935Z,4.95
2023-09-12T13:34:00.843Z,5.70
2023-09-12T13:44:22.587Z,8.17
2023-09-12T13:54:44.917Z,7.80
2023-09-12T14:05:15.107Z,26.05
2023-09-12T14:15:38.177Z,9.27
2023-09-12T14:26:08.673Z,8.57
2023-09-12T14:36:32.000Z,10.40
2023-09-12T14:47:00.719Z,8.00
2023-09-12T14:57:29.059Z,8.90
2023-09-12T15:07:57.114Z,10.97
2023-09-12T15:18:25.029Z,11.90
2023-09-12T15:28:47.767Z,9.55
2023-09-12T15:39:11.046Z,17.20
2023-09-12T15:49:33.170Z,20.75
2023-09-12T15:59:55.809Z,27.57
2023-09-12T16:10:17.935Z,28.07
2023-09-12T16:20:39.966Z,29.10
2023-09-12T16:31:08.463Z,13.87
2023-09-12T16:41:32.247Z,20.65
2023-09-12T16:51:54.920Z,15.83
2023-09-12T17:02:23.802Z,27.50
2023-09-12T17:12:44.955Z,21.67
2023-09-12T17:23:06.306Z,22.50
2023-09-12T17:33:27.965Z,62.17
2023-09-12T17:43:49.363Z,34.00
2023-09-12T17:54:10.999Z,28.17
2023-09-12T18:04:32.889Z,25.00
2023-09-12T18:14:55.242Z,39.40
2023-09-12T18:25:17.519Z,25.07
2023-09-12T18:35:40.502Z,22.63
2023-09-12T18:46:02.128Z,35.33
2023-09-12T18:56:24.312Z,23.13
2023-09-12T19:06:45.745Z,15.15
2023-09-12T19:17:07.166Z,19.03
2023-09-12T19:27:28.675Z,12.02
2023-09-12T19:37:51.838Z,9.70
2023-09-12T19:48:14.575Z,11.17
2023-09-12T19:58:38.082Z,18.70
2023-09-12T20:09:00.034Z,13.23
2023-09-12T20:19:22.111Z,13.60
2023-09-12T20:29:44.463Z,24.13
2023-09-12T20:40:09.698Z,14.30
2023-09-12T20:50:31.703Z,13.88
